createdAt,value
2022-12-23T00:03:00.295Z,16.33
2022-12-23T00:07:04.061Z,16.00
2022-12-23T00:11:12.189Z,16.60
2022-12-23T00:15:15.843Z,17.83
2022-12-23T00:19:20.669Z,16.67
2022-12-23T00:23:24.607Z,15.57
2022-12-23T00:27:32.851Z,18.00
2022-12-23T00:31:39.493Z,18.30
2022-12-23T00:35:45.042Z,19.27
2022-12-23T00:40:07.250Z,19.63
2022-12-23T00:44:10.951Z,19.13
2022-12-23T00:48:32.381Z,18.27
2022-12-23T00:52:37.058Z,22.80
2022-12-23T00:56:40.686Z,21.40
2022-12-23T01:01:02.394Z,20.60
2022-12-23T01:05:26.536Z,21.20
2022-12-23T01:09:31.549Z,18.47
2022-12-23T01:13:35.341Z,23.30
2022-12-23T01:17:38.911Z,20.77
2022-12-23T01:21:42.511Z,20.50
2022-12-23T01:25:48.189Z,23.60
2022-12-23T01:29:51.630Z,19.93
2022-12-23T01:33:56.548Z,23.10
2022-12-23T01:38:00.057Z,18.57
2022-12-23T01:42:23.740Z,20.40
2022-12-23T01:46:28.177Z,18.50
2022-12-23T01:50:34.519Z,19.07
2022-12-23T01:54:39.076Z,18.93
2022-12-23T01:58:47.913Z,19.33
2022-12-23T02:03:11.562Z,18.10
2022-12-23T02:07:33.909Z,16.90
2022-12-23T02:11:51.874Z,16.80
2022-12-23T02:16:18.853Z,16.63
2022-12-23T02:21:03.280Z,15.93
2022-12-23T02:25:39.403Z,15.60
2022-12-23T02:30:24.759Z,15.67
2022-12-23T02:34:37.836Z,16.33
2022-12-23T02:38:47.201Z,15.23
2022-12-23T02:42:58.728Z,15.90
2022-12-23T02:47:05.264Z,15.10
2022-12-23T02:51:12.748Z,13.40
2022-12-23T02:55:20.916Z,15.07
2022-12-23T02:59:27.943Z,16.80
2022-12-23T03:03:32.500Z,15.10
2022-12-23T03:07:44.381Z,14.77
2022-12-23T03:11:55.571Z,15.77
2022-12-23T03:16:13.478Z,14.93
2022-12-23T03:20:27.652Z,17.23
2022-12-23T03:24:40.904Z,16.47
2022-12-23T03:28:47.937Z,14.83
2022-12-23T03:32:56.144Z,13.60
2022-12-23T03:37:05.081Z,13.17
2022-12-23T03:41:15.104Z,14.10
2022-12-23T03:45:39.724Z,20.37
2022-12-23T03:49:48.144Z,12.03
2022-12-23T03:53:55.658Z,13.33
2022-12-23T03:58:05.749Z,12.97
2022-12-23T04:02:12.474Z,12.67
2022-12-23T04:06:18.893Z,12.80
2022-12-23T04:10:23.212Z,12.43
2022-12-23T04:14:28.224Z,11.37
2022-12-23T04:18:31.699Z,13.10
2022-12-23T04:22:35.141Z,13.03
2022-12-23T04:26:38.613Z,12.53
2022-12-23T04:30:44.332Z,13.17
2022-12-23T04:34:47.621Z,14.10
2022-12-23T04:38:50.961Z,12.10
2022-12-23T04:42:54.334Z,12.27
2022-12-23T04:47:05.680Z,12.77
2022-12-23T04:51:09.014Z,12.03
2022-12-23T04:55:13.657Z,12.57
2022-12-23T04:59:17.213Z,13.47
2022-12-23T05:03:22.037Z,12.07
2022-12-23T05:07:27.047Z,12.10
2022-12-23T05:11:31.364Z,11.00
2022-12-23T05:15:39.759Z,13.07
2022-12-23T05:19:59.791Z,18.73
2022-12-23T05:24:03.120Z,23.03
2022-12-23T05:28:51.890Z,21.07
2022-12-23T05:32:55.864Z,19.37
2022-12-23T05:37:00.571Z,19.07
2022-12-23T05:41:04.326Z,18.40
2022-12-23T05:45:17.398Z,16.83
2022-12-23T05:49:28.835Z,13.07
2022-12-23T05:53:36.089Z,14.47
2022-12-23T05:57:42.456Z,17.83
2022-12-23T06:01:47.626Z,19.60
2022-12-23T06:06:39.412Z,17.90
2022-12-23T06:11:39.030Z,18.97
2022-12-23T06:15:44.686Z,16.20
2022-12-23T06:19:48.477Z,21.97
2022-12-23T06:24:01.851Z,17.90
2022-12-23T06:28:19.098Z,18.80
2022-12-23T06:32:24.675Z,19.10
2022-12-23T06:36:35.278Z,20.60
2022-12-23T06:40:38.625Z,16.97
2022-12-23T06:44:42.666Z,16.10
2022-12-23T06:48:47.364Z,28.23
2022-12-23T06:52:51.388Z,14.13
2022-12-23T06:56:56.903Z,14.37
2022-12-23T07:01:00.345Z,14.37
2022-12-23T07:05:07.404Z,13.50
2022-12-23T07:09:11.579Z,14.20
2022-12-23T07:13:15.000Z,20.60
2022-12-23T07:17:18.695Z,29.07
2022-12-23T07:21:28.946Z,23.80
2022-12-23T07:25:33.017Z,30.50
2022-12-23T07:29:36.452Z,18.73
2022-12-23T07:33:39.774Z,27.43
2022-12-23T07:37:44.437Z,29.10
2022-12-23T07:41:48.911Z,25.33
2022-12-23T07:45:59.213Z,23.53
2022-12-23T07:50:03.630Z,26.33
2022-12-23T07:54:09.473Z,24.23
2022-12-23T07:58:12.764Z,22.17
2022-12-23T08:02:16.325Z,21.90
2022-12-23T08:06:19.769Z,20.60
2022-12-23T08:10:24.584Z,20.20
2022-12-23T08:14:27.882Z,22.90
2022-12-23T08:18:32.555Z,24.70
2022-12-23T08:22:36.014Z,21.80
2022-12-23T08:26:40.695Z,20.60
2022-12-23T08:30:44.284Z,21.67
2022-12-23T08:34:47.693Z,22.00
2022-12-23T08:38:51.800Z,24.30
2022-12-23T08:42:57.514Z,23.80
2022-12-23T08:47:00.936Z,22.20
2022-12-23T08:51:06.253Z,15.53
2022-12-23T08:55:10.237Z,14.97
2022-12-23T08:59:19.225Z,14.50
2022-12-23T09:03:24.071Z,19.83
2022-12-23T09:07:27.570Z,29.83
2022-12-23T09:11:30.981Z,28.30
2022-12-23T09:15:38.918Z,20.93
2022-12-23T09:19:48.724Z,18.43
2022-12-23T09:23:56.035Z,17.40
2022-12-23T09:28:00.628Z,16.50
2022-12-23T09:32:05.508Z,15.13
2022-12-23T09:36:10.230Z,16.37
2022-12-23T09:40:15.135Z,13.97
2022-12-23T09:44:36.476Z,14.20
2022-12-23T09:48:47.817Z,15.17
2022-12-23T09:52:59.964Z,14.17
2022-12-23T09:57:10.025Z,14.83
2022-12-23T10:01:50.267Z,14.80
2022-12-23T10:06:05.283Z,15.80
2022-12-23T10:10:18.027Z,20.00
2022-12-23T10:14:27.697Z,21.37
2022-12-23T10:18:47.235Z,22.67
2022-12-23T10:22:52.991Z,24.37
2022-12-23T10:27:12.461Z,20.20
2022-12-23T10:35:52.858Z,26.57
2022-12-23T10:40:11.473Z,19.27
2022-12-23T10:44:54.166Z,17.57
2022-12-23T10:49:05.838Z,17.73
2022-12-23T10:53:14.820Z,17.53
2022-12-23T10:57:21.568Z,19.40
2022-12-23T11:01:27.310Z,19.13
2022-12-23T11:05:32.185Z,19.10
2022-12-23T11:09:43.328Z,18.93
2022-12-23T11:13:51.131Z,19.00
2022-12-23T11:18:00.270Z,17.67
2022-12-23T11:22:07.362Z,18.80
2022-12-23T11:26:18.857Z,18.33
2022-12-23T11:30:25.197Z,19.83
2022-12-23T11:34:37.292Z,18.40
2022-12-23T11:38:51.953Z,18.10
2022-12-23T11:43:01.165Z,18.47
2022-12-23T11:47:25.750Z,20.80
2022-12-23T11:51:29.075Z,17.80
2022-12-23T11:55:34.096Z,19.40
2022-12-23T11:59:40.297Z,18.10
2022-12-23T12:03:49.925Z,17.90
2022-12-23T12:07:54.072Z,19.70
2022-12-23T12:12:06.643Z,19.63
2022-12-23T12:16:24.049Z,18.77
2022-12-23T12:20:35.195Z,19.03
2022-12-23T12:24:42.955Z,17.33
2022-12-23T12:28:48.727Z,19.10
2022-12-23T12:32:59.090Z,17.80
2022-12-23T12:37:13.063Z,16.47
2022-12-23T12:41:19.419Z,16.20
2022-12-23T12:45:25.279Z,16.27
2022-12-23T12:49:35.383Z,16.57
2022-12-23T12:54:04.680Z,15.43
2022-12-23T12:58:13.886Z,16.33
2022-12-23T13:02:31.767Z,18.10
2022-12-23T13:06:44.762Z,15.83
2022-12-23T13:10:53.230Z,13.77
2022-12-23T13:15:04.259Z,15.37
2022-12-23T13:19:19.039Z,14.27
2022-12-23T13:23:43.423Z,14.50
2022-12-23T13:27:54.786Z,13.23
2022-12-23T13:32:05.361Z,15.60
2022-12-23T13:36:27.820Z,14.00
2022-12-23T13:40:39.424Z,13.07
2022-12-23T13:44:44.575Z,14.23
2022-12-23T13:48:56.464Z,15.37
2022-12-23T13:53:17.685Z,13.30
2022-12-23T13:57:37.881Z,12.43
2022-12-23T14:01:52.664Z,13.83
2022-12-23T14:05:56.422Z,14.23
2022-12-23T14:10:11.594Z,13.03
2022-12-23T14:14:23.999Z,14.20
2022-12-23T14:18:46.776Z,13.10
2022-12-23T14:23:02.205Z,12.47
2022-12-23T14:27:25.789Z,12.20
2022-12-23T14:31:38.037Z,13.43
2022-12-23T14:35:54.981Z,12.30
2022-12-23T14:39:59.503Z,12.07
2022-12-23T14:44:03.169Z,12.30
2022-12-23T14:49:37.502Z,12.90
2022-12-23T14:53:35.576Z,10.80
2022-12-23T14:57:39.558Z,12.30
2022-12-23T15:01:47.997Z,11.13
2022-12-23T15:05:51.908Z,10.17
2022-12-23T15:10:01.622Z,11.77
2022-12-23T15:14:11.007Z,11.03
2022-12-23T15:18:15.509Z,10.60
2022-12-23T15:22:25.202Z,11.17
2022-12-23T15:26:34.545Z,12.13
2022-12-23T15:30:49.593Z,11.80
2022-12-23T15:40:03.378Z,11.53
2022-12-23T15:44:33.467Z,10.63
2022-12-23T15:48:39.445Z,11.93
2022-12-23T15:52:44.425Z,12.07
2022-12-23T15:56:51.481Z,13.50
2022-12-23T16:00:58.706Z,11.70
2022-12-23T16:05:04.531Z,12.77
2022-12-23T16:09:35.925Z,14.23
2022-12-23T16:13:54.448Z,12.80
2022-12-23T16:38:11.359Z,12.90
2022-12-23T16:42:15.043Z,13.90
2022-12-23T16:46:29.235Z,15.87
2022-12-23T16:50:32.818Z,14.17
2022-12-23T16:54:37.770Z,18.77
2022-12-23T17:07:56.108Z,15.80
2022-12-23T17:12:32.407Z,15.60
2022-12-23T17:21:30.406Z,15.70
2022-12-23T17:25:33.939Z,17.77
2022-12-23T17:29:38.623Z,18.00
2022-12-23T17:33:42.480Z,17.23
2022-12-23T17:37:46.159Z,16.03
2022-12-23T17:41:49.989Z,16.20
2022-12-23T17:45:54.797Z,15.40
2022-12-23T17:49:59.285Z,17.30
2022-12-23T17:54:06.635Z,18.40
2022-12-23T18:02:30.835Z,18.63
2022-12-23T18:06:34.548Z,17.37
2022-12-23T18:11:29.676Z,16.73
2022-12-23T18:15:43.620Z,20.80
2022-12-23T18:19:48.401Z,19.80
2022-12-23T18:23:54.846Z,19.67
2022-12-23T18:27:58.281Z,21.33
2022-12-23T18:32:04.490Z,20.70
2022-12-23T18:36:19.998Z,20.90
2022-12-23T18:40:30.898Z,21.20
2022-12-23T18:44:36.511Z,23.20
2022-12-23T18:48:40.364Z,23.13
2022-12-23T18:52:46.768Z,20.50
2022-12-23T18:56:51.028Z,19.20
2022-12-23T19:00:55.246Z,19.50
2022-12-23T19:05:11.824Z,18.50
2022-12-23T19:09:20.493Z,18.20
2022-12-23T19:13:25.207Z,19.10
2022-12-23T19:17:28.672Z,17.80
2022-12-23T19:21:33.045Z,16.03
2022-12-23T19:25:46.129Z,17.80
2022-12-23T19:29:57.329Z,17.70
2022-12-23T19:34:08.132Z,18.20
2022-12-23T19:38:21.350Z,18.93
2022-12-23T19:42:26.493Z,18.40
2022-12-23T19:46:29.976Z,18.30
2022-12-23T19:50:52.859Z,18.90
2022-12-23T19:54:56.331Z,18.40
2022-12-23T19:59:05.518Z,17.80
2022-12-23T20:03:09.082Z,17.20
2022-12-23T20:07:12.539Z,18.90
2022-12-23T20:11:22.933Z,17.27
2022-12-23T20:15:29.494Z,18.10
2022-12-23T20:19:33.503Z,17.10
2022-12-23T20:23:38.423Z,15.53
2022-12-23T20:27:42.557Z,15.83
2022-12-23T20:31:48.309Z,14.87
2022-12-23T20:35:51.959Z,16.67
2022-12-23T20:39:55.715Z,15.87
2022-12-23T20:48:33.621Z,15.83
2022-12-23T20:52:37.603Z,15.30
2022-12-23T20:56:43.100Z,14.20
2022-12-23T21:00:48.427Z,14.10
2022-12-23T21:04:54.174Z,12.77
2022-12-23T21:08:59.647Z,13.70
2022-12-23T21:13:03.702Z,12.50
2022-12-23T21:17:07.238Z,17.60
2022-12-23T21:21:14.408Z,20.00
2022-12-23T21:25:19.285Z,18.60
2022-12-23T21:29:22.828Z,17.33
2022-12-23T21:33:26.231Z,16.63
2022-12-23T21:37:33.189Z,16.13
2022-12-23T21:41:39.515Z,15.67
2022-12-23T21:45:42.947Z,15.57
2022-12-23T21:49:46.432Z,14.37
2022-12-23T21:53:53.963Z,15.53
2022-12-23T21:57:59.260Z,14.87
2022-12-23T22:02:02.707Z,15.97
2022-12-23T22:06:10.524Z,17.23
2022-12-23T22:10:15.512Z,16.10
2022-12-23T22:14:19.954Z,16.23
2022-12-23T22:18:23.407Z,15.70
2022-12-23T22:22:26.771Z,16.67
2022-12-23T22:26:33.901Z,16.20
2022-12-23T22:30:37.200Z,16.90
2022-12-23T22:34:40.652Z,17.80
2022-12-23T22:38:44.591Z,16.50
2022-12-23T22:42:49.511Z,16.47
2022-12-23T22:46:52.923Z,17.97
2022-12-23T22:51:03.476Z,18.10
2022-12-23T22:55:08.034Z,17.40
2022-12-23T22:59:20.124Z,15.00
2022-12-23T23:03:23.742Z,16.13
2022-12-23T23:07:27.198Z,16.57
2022-12-23T23:11:30.798Z,15.37
2022-12-23T23:15:35.570Z,18.03
2022-12-23T23:19:39.060Z,15.67
2022-12-23T23:23:42.392Z,16.70
2022-12-23T23:27:45.735Z,16.60
2022-12-23T23:31:50.435Z,15.37
2022-12-23T23:35:56.170Z,16.63
2022-12-23T23:39:59.603Z,16.40
2022-12-23T23:44:02.916Z,14.17
2022-12-23T23:48:08.123Z,16.00
2022-12-23T23:52:11.472Z,14.10
2022-12-23T23:56:16.369Z,16.23
